Time;durP1;ratioP1;P1;durP2;ratioP2;P2;SDS_P1;SDS_P2;PMS_P1;PMS_P2;Temp;Humidity;BMP_temperature;BMP_pressure;BME280_temperature;BME280_humidity;BME280_pressure;Samples;Min_cycle;Max_cycle;Signal;HPM_P1;HPM_P2
2022/05/11 00:01:31;;;;;;;8.10;3.70;;;13.30;99.90;;;;;;4991794;28;20084;-75
2022/05/11 00:03:59;;;;;;;5.53;3.35;;;13.30;99.90;;;;;;4973634;28;20033;-76
2022/05/11 00:06:26;;;;;;;5.10;3.65;;;13.30;99.90;;;;;;4982906;28;20144;-76
2022/05/11 00:08:53;;;;;;;7.72;3.63;;;13.30;99.90;;;;;;4990320;28;20042;-76
2022/05/11 00:11:19;;;;;;;7.47;3.30;;;13.30;99.90;;;;;;4990031;28;20107;-76
2022/05/11 00:13:44;;;;;;;7.15;3.28;;;13.30;99.90;;;;;;4987638;28;20034;-76
2022/05/11 00:16:11;;;;;;;5.50;3.50;;;13.30;99.90;;;;;;4997016;28;20038;-76
2022/05/11 00:18:40;;;;;;;4.80;2.95;;;13.20;99.90;;;;;;4957413;28;20380;-76
2022/05/11 00:21:07;;;;;;;6.38;3.05;;;13.30;99.90;;;;;;4983747;28;20093;-75
2022/05/11 00:23:32;;;;;;;4.43;3.50;;;13.30;99.90;;;;;;4988644;28;20048;-76
2022/05/11 00:25:58;;;;;;;8.05;3.28;;;13.30;99.90;;;;;;4974584;28;20050;-76
2022/05/11 00:28:25;;;;;;;5.57;3.33;;;13.30;99.90;;;;;;4973674;28;20042;-76
2022/05/11 00:30:50;;;;;;;8.00;3.22;;;13.30;99.90;;;;;;4991235;28;20052;-75
2022/05/11 00:33:17;;;;;;;6.97;3.55;;;13.30;99.90;;;;;;4978384;28;20039;-76
2022/05/11 00:35:45;;;;;;;6.68;3.60;;;13.20;99.90;;;;;;4955744;28;20030;-76
2022/05/11 00:38:12;;;;;;;8.55;3.80;;;13.20;99.90;;;;;;4988844;28;20038;-75
2022/05/11 00:40:49;;;;;;;8.77;3.65;;;13.20;99.90;;;;;;4973858;28;20045;-75
2022/05/11 00:43:27;;;;;;;6.45;3.42;;;13.20;99.90;;;;;;4986454;28;20034;-76
2022/05/11 00:45:58;;;;;;;5.28;3.40;;;13.20;99.90;;;;;;4990601;28;20042;-75
2022/05/11 00:51:13;;;;;;;5.88;3.28;;;13.30;99.90;;;;;;4987062;28;20041;-76
2022/05/11 00:53:42;;;;;;;5.95;4.00;;;13.40;99.90;;;;;;4992245;28;20074;-76
2022/05/11 00:56:08;;;;;;;11.85;3.72;;;13.40;99.90;;;;;;4991470;28;20038;-76
2022/05/11 00:58:42;;;;;;;11.18;3.60;;;13.40;99.90;;;;;;4975317;28;20048;-76
2022/05/11 01:01:08;;;;;;;5.43;3.47;;;13.40;99.90;;;;;;5006116;28;20038;-76
2022/05/11 01:03:39;;;;;;;6.55;3.60;;;13.40;99.90;;;;;;4975098;28;20039;-76
2022/05/11 01:06:08;;;;;;;6.28;3.40;;;13.40;99.90;;;;;;4994152;28;20038;-76
2022/05/11 01:08:34;;;;;;;5.80;3.30;;;13.40;99.90;;;;;;4973919;28;20663;-76
2022/05/11 01:11:03;;;;;;;7.75;3.70;;;13.50;99.90;;;;;;4974111;28;20461;-76
2022/05/11 01:13:31;;;;;;;9.93;3.92;;;13.40;99.90;;;;;;4957857;28;20038;-75
2022/05/11 01:15:58;;;;;;;7.38;3.70;;;13.50;99.90;;;;;;4965243;28;20129;-76
2022/05/11 01:18:24;;;;;;;5.60;3.83;;;13.50;99.90;;;;;;4954652;28;20101;-76
2022/05/11 01:20:51;;;;;;;4.82;3.70;;;13.60;99.90;;;;;;4973412;28;20050;-76
2022/05/11 01:23:29;;;;;;;7.20;4.43;;;13.60;99.90;;;;;;4956353;28;20039;-76
2022/05/11 01:25:54;;;;;;;9.00;3.90;;;13.60;99.90;;;;;;4976553;28;20058;-76
2022/05/11 01:28:21;;;;;;;6.90;3.60;;;13.60;99.90;;;;;;4955215;28;20042;-76
2022/05/11 01:30:52;;;;;;;5.90;3.90;;;13.60;99.90;;;;;;4960419;28;20043;-76
2022/05/11 01:33:24;;;;;;;9.60;3.97;;;13.60;99.90;;;;;;4954112;28;20069;-76
2022/05/11 01:35:55;;;;;;;5.65;3.50;;;13.60;99.90;;;;;;4968222;28;20125;-76
2022/05/11 01:38:38;;;;;;;7.60;4.72;;;13.60;99.90;;;;;;4977288;28;20041;-76
2022/05/11 01:41:04;;;;;;;7.40;3.72;;;13.60;99.90;;;;;;4962166;28;20311;-76
2022/05/11 01:43:33;;;;;;;5.45;3.55;;;13.60;99.90;;;;;;4955554;28;20572;-76
2022/05/11 01:46:00;;;;;;;7.50;4.10;;;13.60;99.90;;;;;;4963955;28;20042;-76
2022/05/11 01:48:26;;;;;;;5.68;3.97;;;13.60;99.90;;;;;;4949274;28;20042;-76
2022/05/11 01:50:52;;;;;;;5.30;3.95;;;13.50;99.90;;;;;;4956722;28;20068;-76
2022/05/11 01:53:18;;;;;;;5.70;3.75;;;13.50;99.90;;;;;;4956583;28;20065;-76
2022/05/11 01:55:44;;;;;;;5.97;4.00;;;13.50;99.90;;;;;;4942159;28;20449;-76
2022/05/11 01:58:11;;;;;;;6.45;4.13;;;13.50;99.90;;;;;;4973685;28;20050;-76
2022/05/11 02:00:39;;;;;;;6.30;4.40;;;13.50;99.90;;;;;;4956290;28;20485;-76
2022/05/11 02:03:05;;;;;;;7.65;4.70;;;13.50;99.90;;;;;;4950629;28;20038;-76
2022/05/11 02:08:16;;;;;;;7.72;4.75;;;13.50;99.90;;;;;;4977648;28;20136;-76
2022/05/11 02:10:42;;;;;;;5.32;4.40;;;13.50;99.90;;;;;;4977900;28;20372;-76
2022/05/11 02:13:08;;;;;;;10.82;5.10;;;13.60;99.90;;;;;;4991901;28;20113;-76
2022/05/11 02:15:36;;;;;;;10.13;4.55;;;13.60;99.90;;;;;;4989091;28;20125;-76
2022/05/11 02:18:02;;;;;;;8.25;4.80;;;13.60;99.90;;;;;;4995000;28;20056;-76
2022/05/11 02:20:27;;;;;;;7.85;4.75;;;13.50;99.90;;;;;;4950833;28;20038;-76
2022/05/11 02:22:53;;;;;;;10.55;4.65;;;13.50;99.90;;;;;;4977495;28;20037;-76
2022/05/11 02:25:19;;;;;;;7.88;4.15;;;13.60;99.90;;;;;;4979798;28;20113;-76
2022/05/11 02:27:47;;;;;;;7.45;4.32;;;13.60;99.90;;;;;;4990824;28;20099;-76
2022/05/11 02:30:23;;;;;;;5.95;3.95;;;13.60;99.90;;;;;;4994594;28;20030;-76
2022/05/11 02:32:49;;;;;;;9.13;4.25;;;13.60;99.90;;;;;;4994634;28;20046;-76
2022/05/11 02:35:17;;;;;;;8.10;4.22;;;13.60;99.90;;;;;;5004539;28;20038;-76
2022/05/11 02:37:47;;;;;;;6.85;4.00;;;13.60;99.90;;;;;;4979376;28;20045;-75
2022/05/11 02:40:16;;;;;;;10.55;4.43;;;13.60;99.90;;;;;;5002392;28;20049;-76
2022/05/11 02:42:42;;;;;;;8.48;4.50;;;13.60;99.90;;;;;;4996441;28;20081;-76
2022/05/11 02:45:08;;;;;;;7.97;4.00;;;13.70;99.90;;;;;;5011969;28;20797;-76
2022/05/11 02:47:35;;;;;;;7.70;3.72;;;13.60;99.90;;;;;;5011326;28;20095;-75
2022/05/11 02:50:03;;;;;;;7.43;3.70;;;13.70;99.90;;;;;;4995105;28;20037;-76
2022/05/11 02:52:30;;;;;;;7.50;4.20;;;13.70;99.90;;;;;;4990060;28;20521;-75
2022/05/11 02:54:56;;;;;;;5.50;4.20;;;13.60;99.90;;;;;;4982727;28;20052;-76
2022/05/11 02:57:22;;;;;;;7.85;4.38;;;13.60;99.90;;;;;;4989716;28;20049;-76
2022/05/11 02:59:49;;;;;;;6.72;4.15;;;13.70;99.90;;;;;;4990261;28;20403;-76
2022/05/11 03:02:19;;;;;;;7.97;4.30;;;13.70;99.90;;;;;;4976866;28;20041;-76
2022/05/11 03:04:44;;;;;;;6.57;4.25;;;13.60;99.90;;;;;;4985494;28;20501;-76
2022/05/11 03:07:10;;;;;;;5.30;3.65;;;13.60;99.90;;;;;;4972387;28;20046;-76
2022/05/11 03:09:36;;;;;;;9.27;4.38;;;13.60;99.90;;;;;;4983360;28;20078;-76
2022/05/11 03:12:02;;;;;;;11.80;4.05;;;13.60;99.90;;;;;;4974803;28;20056;-76
2022/05/11 03:14:27;;;;;;;9.20;3.92;;;13.60;99.90;;;;;;4987357;28;20133;-76
2022/05/11 03:16:53;;;;;;;8.02;4.03;;;13.70;99.90;;;;;;4959269;28;20452;-76
2022/05/11 03:19:19;;;;;;;10.15;3.97;;;13.60;99.90;;;;;;4987606;28;20443;-76
2022/05/11 03:21:44;;;;;;;8.55;3.80;;;13.60;99.90;;;;;;4970847;28;20388;-76
2022/05/11 03:24:10;;;;;;;8.15;3.75;;;13.60;99.90;;;;;;4963795;28;20038;-76
2022/05/11 03:26:36;;;;;;;5.53;4.15;;;13.60;99.90;;;;;;4971712;28;20124;-76
2022/05/11 03:29:05;;;;;;;7.25;3.95;;;13.60;99.90;;;;;;4986657;28;20041;-76
2022/05/11 03:31:35;;;;;;;7.60;3.90;;;13.60;99.90;;;;;;4973884;28;20033;-76
2022/05/11 03:36:48;;;;;;;7.43;3.53;;;13.60;99.90;;;;;;4988144;28;20095;-76
2022/05/11 03:39:15;;;;;;;5.88;3.80;;;13.60;99.90;;;;;;4991468;28;20038;-76
2022/05/11 03:41:42;;;;;;;5.55;3.65;;;13.60;99.90;;;;;;4984750;28;20042;-76
2022/05/11 03:44:08;;;;;;;7.50;3.92;;;13.60;99.90;;;;;;4984889;28;20043;-76
2022/05/11 03:46:34;;;;;;;5.70;3.33;;;13.60;99.90;;;;;;4983541;28;20038;-76
2022/05/11 03:49:00;;;;;;;10.05;3.92;;;13.60;99.90;;;;;;4986624;28;20133;-76
2022/05/11 03:51:26;;;;;;;6.93;3.40;;;13.50;99.90;;;;;;4984633;28;20112;-76
2022/05/11 03:53:52;;;;;;;6.90;3.70;;;13.50;99.90;;;;;;4973178;28;20056;-76
2022/05/11 03:56:18;;;;;;;6.28;3.38;;;13.50;99.90;;;;;;4978443;28;20037;-76
2022/05/11 03:58:45;;;;;;;40.10;10.88;;;13.50;99.90;;;;;;4956263;28;20500;-76
2022/05/11 04:01:12;;;;;;;7.63;4.00;;;13.50;99.90;;;;;;4969341;28;20048;-76
2022/05/11 04:03:39;;;;;;;7.28;4.05;;;13.50;99.90;;;;;;4989888;28;21092;-76
2022/05/11 04:06:04;;;;;;;12.73;5.30;;;13.50;99.90;;;;;;4986245;28;20165;-76
2022/05/11 04:08:30;;;;;;;7.35;4.15;;;13.50;99.90;;;;;;4973205;28;20132;-76
2022/05/11 04:10:56;;;;;;;11.88;4.65;;;13.50;99.90;;;;;;4987266;28;20030;-76
2022/05/11 04:13:22;;;;;;;9.50;4.60;;;13.50;99.90;;;;;;4988791;28;20037;-76
2022/05/11 04:15:50;;;;;;;32.13;9.70;;;13.50;99.90;;;;;;5003968;28;20458;-76
2022/05/11 04:18:17;;;;;;;5.70;3.88;;;13.50;99.90;;;;;;4973506;28;20038;-76
2022/05/11 04:20:43;;;;;;;5.30;4.03;;;13.50;99.90;;;;;;4986127;28;20463;-76
2022/05/11 04:23:09;;;;;;;7.43;4.10;;;13.60;99.90;;;;;;4992481;28;20384;-76
2022/05/11 04:25:35;;;;;;;12.13;4.93;;;13.60;99.90;;;;;;4955113;28;20038;-76
2022/05/11 04:28:02;;;;;;;10.30;4.60;;;13.50;99.90;;;;;;4987670;28;20100;-76
2022/05/11 04:30:31;;;;;;;7.22;3.92;;;13.60;99.90;;;;;;4988059;28;20050;-76
2022/05/11 04:32:58;;;;;;;7.07;4.00;;;13.50;99.90;;;;;;4976473;28;20038;-76
2022/05/11 04:35:30;;;;;;;12.77;5.28;;;13.60;99.90;;;;;;4989544;28;20042;-75
2022/05/11 04:37:57;;;;;;;10.57;5.38;;;13.60;99.90;;;;;;4974150;28;20081;-76
2022/05/11 04:40:24;;;;;;;15.02;5.93;;;13.60;99.90;;;;;;4975245;28;20517;-75
2022/05/11 04:42:50;;;;;;;7.95;3.97;;;13.60;99.90;;;;;;4993910;28;20097;-75
2022/05/11 04:45:16;;;;;;;9.90;5.45;;;13.70;99.90;;;;;;4992532;28;20042;-75
2022/05/11 04:47:42;;;;;;;11.30;5.15;;;13.60;99.90;;;;;;4991710;28;21597;-75
2022/05/11 04:50:09;;;;;;;10.32;4.60;;;13.60;99.90;;;;;;4974253;28;20034;-75
2022/05/11 04:52:35;;;;;;;10.15;5.53;;;13.70;99.90;;;;;;4962536;28;20044;-75
2022/05/11 04:55:02;;;;;;;8.48;4.60;;;13.70;99.90;;;;;;4990041;28;20042;-75
2022/05/11 04:57:28;;;;;;;11.32;4.88;;;13.70;99.90;;;;;;4992478;28;20499;-75
2022/05/11 04:59:54;;;;;;;12.27;5.05;;;13.70;99.90;;;;;;4990459;28;20127;-75
2022/05/11 05:02:22;;;;;;;8.52;4.90;;;13.70;99.90;;;;;;4979271;28;20053;-75
2022/05/11 05:04:48;;;;;;;11.05;5.32;;;13.70;99.90;;;;;;4972389;28;20037;-75
2022/05/11 05:07:15;;;;;;;13.25;7.28;;;13.80;99.90;;;;;;4973168;28;20054;-75
2022/05/11 05:09:43;;;;;;;11.85;5.90;;;13.80;99.90;;;;;;4992904;28;20102;-75
2022/05/11 05:12:13;;;;;;;10.57;6.88;;;13.80;99.90;;;;;;4973197;28;20121;-75
2022/05/11 05:14:39;;;;;;;16.00;7.53;;;13.80;99.90;;;;;;4985556;28;20380;-75
2022/05/11 05:17:08;;;;;;;15.90;8.57;;;13.90;99.90;;;;;;4978047;28;20045;-75
2022/05/11 05:19:35;;;;;;;13.75;9.02;;;13.90;99.90;;;;;;4988954;28;20048;-75
2022/05/11 05:22:03;;;;;;;25.20;10.57;;;13.90;99.90;;;;;;4974800;28;20416;-75
2022/05/11 05:24:30;;;;;;;17.42;9.98;;;13.90;99.90;;;;;;4980263;28;20041;-75
2022/05/11 05:26:56;;;;;;;15.50;9.85;;;14.00;99.90;;;;;;4994678;28;20038;-75
2022/05/11 05:32:07;;;;;;;19.58;10.13;;;14.00;99.90;;;;;;4980348;28;20037;-75
2022/05/11 05:34:32;;;;;;;16.33;9.23;;;14.10;99.90;;;;;;4991299;28;20038;-76
2022/05/11 05:36:58;;;;;;;13.25;9.27;;;14.10;99.90;;;;;;4963604;28;20049;-75
2022/05/11 05:39:24;;;;;;;14.40;9.02;;;14.20;99.90;;;;;;4965102;28;20054;-76
2022/05/11 05:41:50;;;;;;;18.38;9.50;;;14.20;99.90;;;;;;4977539;28;20099;-76
2022/05/11 05:44:15;;;;;;;13.15;8.35;;;14.20;99.90;;;;;;4993282;28;20037;-76
2022/05/11 05:46:41;;;;;;;14.00;9.57;;;14.20;99.90;;;;;;4990954;28;20121;-76
2022/05/11 05:49:15;;;;;;;14.23;9.13;;;14.30;99.90;;;;;;4970858;28;20066;-76
2022/05/11 05:51:42;;;;;;;13.27;8.32;;;14.30;99.90;;;;;;4973043;28;20042;-75
2022/05/11 05:54:08;;;;;;;14.80;8.05;;;14.40;99.90;;;;;;4978552;28;20084;-75
2022/05/11 05:56:34;;;;;;;14.05;7.65;;;14.40;99.90;;;;;;4970282;28;20042;-76
2022/05/11 05:59:05;;;;;;;15.10;7.60;;;14.50;99.90;;;;;;4970475;28;20463;-76
2022/05/11 06:01:32;;;;;;;16.33;8.20;;;14.50;99.90;;;;;;4991150;28;20049;-76
2022/05/11 06:03:58;;;;;;;9.68;7.00;;;14.60;99.90;;;;;;4992953;28;20538;-76
2022/05/11 06:06:25;;;;;;;12.85;6.25;;;14.60;99.90;;;;;;4969203;28;20571;-75
2022/05/11 06:08:51;;;;;;;10.68;6.68;;;14.70;99.90;;;;;;4980303;28;20042;-75
2022/05/11 06:11:17;;;;;;;14.68;7.03;;;14.70;99.90;;;;;;5011338;28;20044;-75
2022/05/11 06:13:49;;;;;;;15.27;7.53;;;14.70;99.90;;;;;;4979255;28;20034;-76
2022/05/11 06:16:16;;;;;;;11.38;8.20;;;14.80;99.90;;;;;;4977131;28;20046;-75
2022/05/11 06:18:44;;;;;;;13.07;8.55;;;14.80;99.90;;;;;;4981583;28;20046;-75
2022/05/11 06:21:29;;;;;;;12.88;7.72;;;14.90;99.90;;;;;;5014032;28;20041;-75
2022/05/11 06:23:55;;;;;;;14.57;8.13;;;14.90;99.90;;;;;;4970392;28;20116;-75
2022/05/11 06:26:21;;;;;;;12.23;7.65;;;15.00;99.90;;;;;;5006165;28;20037;-76
2022/05/11 06:28:47;;;;;;;17.02;7.82;;;15.00;99.90;;;;;;4992923;28;20492;-76
2022/05/11 06:31:14;;;;;;;12.68;7.80;;;15.00;99.90;;;;;;4992110;28;20068;-76
2022/05/11 06:33:40;;;;;;;12.25;6.93;;;15.10;99.90;;;;;;4963843;28;20451;-75
2022/05/11 06:36:08;;;;;;;10.77;5.95;;;15.10;99.90;;;;;;4973562;28;20098;-75
2022/05/11 06:38:35;;;;;;;9.88;5.32;;;15.20;99.90;;;;;;4988909;28;20041;-75
2022/05/11 06:41:14;;;;;;;10.73;6.03;;;15.30;99.90;;;;;;4989871;28;20034;-75
2022/05/11 06:43:41;;;;;;;17.35;6.05;;;15.40;99.90;;;;;;4981721;28;20069;-75
2022/05/11 06:46:07;;;;;;;8.80;4.90;;;15.40;99.90;;;;;;4987100;28;20065;-75
2022/05/11 06:48:34;;;;;;;11.15;5.13;;;15.50;99.90;;;;;;4978140;28;20123;-75
2022/05/11 06:50:59;;;;;;;11.77;4.63;;;15.60;99.90;;;;;;5011793;28;20029;-75
2022/05/11 06:53:26;;;;;;;12.45;4.60;;;15.70;99.90;;;;;;4981443;28;20049;-73
2022/05/11 07:01:23;;;;;;;9.88;4.00;;;15.90;99.90;;;;;;5019589;28;20041;-75
2022/05/11 07:03:49;;;;;;;10.30;4.43;;;16.10;99.90;;;;;;4996465;28;20485;-73
2022/05/11 07:06:15;;;;;;;10.07;4.50;;;16.20;99.90;;;;;;4996604;28;20045;-74
2022/05/11 07:08:44;;;;;;;9.48;3.70;;;16.20;99.90;;;;;;4996139;28;20049;-75
2022/05/11 07:13:55;;;;;;;9.60;3.25;;;16.50;99.90;;;;;;5007319;28;20344;-75
2022/05/11 07:16:23;;;;;;;12.52;3.97;;;16.60;99.90;;;;;;4997501;28;20049;-75
2022/05/11 07:18:49;;;;;;;6.85;3.05;;;16.60;99.90;;;;;;5006105;28;20671;-75
2022/05/11 07:21:15;;;;;;;9.50;3.00;;;16.80;99.90;;;;;;5012806;28;20045;-75
2022/05/11 07:23:41;;;;;;;11.82;3.55;;;16.70;99.20;;;;;;4980561;28;20091;-75
2022/05/11 07:26:07;;;;;;;10.05;4.05;;;16.70;99.90;;;;;;5012367;28;20080;-75
2022/05/11 07:28:33;;;;;;;9.73;3.28;;;16.80;99.60;;;;;;5012619;28;20068;-75
2022/05/11 07:30:59;;;;;;;7.30;3.10;;;17.00;99.50;;;;;;4966544;28;20476;-75
2022/05/11 07:33:25;;;;;;;9.80;3.13;;;17.10;99.20;;;;;;4996729;28;20087;-75
2022/05/11 07:35:50;;;;;;;10.50;2.97;;;17.30;99.20;;;;;;4996667;28;20072;-75
2022/05/11 07:38:18;;;;;;;28.48;4.43;;;17.30;98.80;;;;;;5012541;28;20410;-75
2022/05/11 07:40:44;;;;;;;8.02;3.42;;;17.40;98.90;;;;;;5006853;28;20049;-75
2022/05/11 07:43:10;;;;;;;7.20;3.05;;;17.50;98.60;;;;;;4966705;28;20510;-75
2022/05/11 07:45:38;;;;;;;6.53;2.60;;;17.60;98.30;;;;;;4991590;28;20096;-75
2022/05/11 07:48:05;;;;;;;8.70;3.17;;;17.90;98.50;;;;;;4995962;28;20582;-74
2022/05/11 07:50:31;;;;;;;7.38;2.53;;;17.90;97.50;;;;;;4996222;28;20049;-75
2022/05/11 07:52:57;;;;;;;14.82;3.50;;;17.80;96.90;;;;;;5022964;28;20502;-75
2022/05/11 07:55:27;;;;;;;7.60;2.70;;;17.90;97.10;;;;;;5003907;28;20033;-75
2022/05/11 08:00:38;;;;;;;8.32;2.60;;;17.90;95.90;;;;;;4998624;28;20049;-75
2022/05/11 08:03:04;;;;;;;9.63;3.47;;;17.90;96.60;;;;;;5012811;28;20037;-75
2022/05/11 08:05:32;;;;;;;7.55;2.33;;;17.90;96.40;;;;;;4995399;28;20392;-74
2022/05/11 08:08:02;;;;;;;9.43;2.75;;;17.90;96.30;;;;;;4995705;28;20426;-74
2022/05/11 08:10:31;;;;;;;12.05;3.17;;;17.80;95.20;;;;;;4992343;28;20614;-74
2022/05/11 08:12:57;;;;;;;7.18;2.28;;;17.70;95.70;;;;;;4999572;28;20037;-74
2022/05/11 08:15:27;;;;;;;7.72;2.08;;;17.70;95.60;;;;;;5013183;28;20033;-75
2022/05/11 08:17:53;;;;;;;5.70;2.08;;;17.60;94.70;;;;;;5013402;28;20052;-74
2022/05/11 08:20:26;;;;;;;8.13;1.80;;;17.50;94.40;;;;;;5008830;28;20124;-75
2022/05/11 08:22:52;;;;;;;3.90;1.60;;;17.50;94.60;;;;;;5004206;28;20610;-74
2022/05/11 08:25:21;;;;;;;4.90;1.92;;;17.70;94.40;;;;;;5008993;28;20052;-75
2022/05/11 08:27:48;;;;;;;7.93;2.58;;;17.70;93.70;;;;;;5010824;28;20095;-75
2022/05/11 08:35:44;;;;;;;3.75;1.92;;;17.80;93.60;;;;;;5012659;28;20064;-75
2022/05/11 08:38:12;;;;;;;5.22;2.30;;;18.00;93.90;;;;;;4996187;28;20550;-76
2022/05/11 08:40:38;;;;;;;8.63;2.13;;;18.10;93.70;;;;;;5012291;28;20483;-75
2022/05/11 08:43:09;;;;;;;5.10;1.95;;;18.40;93.70;;;;;;4996624;28;20048;-75
2022/05/11 08:45:49;;;;;;;5.10;2.53;;;18.70;93.80;;;;;;5012140;28;20107;-75
2022/05/11 08:48:26;;;;;;;9.18;2.30;;;18.70;92.20;;;;;;4995991;28;20049;-75
2022/05/11 08:50:51;;;;;;;10.27;2.47;;;18.80;92.90;;;;;;4995919;28;20043;-76
2022/05/11 08:53:31;;;;;;;7.68;1.88;;;19.10;92.40;;;;;;4963769;28;20033;-75
2022/05/11 08:55:59;;;;;;;7.35;1.90;;;19.30;91.40;;;;;;5011876;28;20041;-75
2022/05/11 08:58:31;;;;;;;5.50;2.15;;;19.30;90.80;;;;;;5012304;28;20042;-76
2022/05/11 09:00:58;;;;;;;6.90;1.93;;;19.40;89.80;;;;;;5011210;28;20099;-75
2022/05/11 09:03:31;;;;;;;7.32;2.13;;;19.50;90.30;;;;;;4999962;28;20514;-76
2022/05/11 09:05:58;;;;;;;7.70;2.55;;;19.50;90.40;;;;;;4981810;28;20059;-75
2022/05/11 09:08:25;;;;;;;5.03;1.98;;;19.30;89.70;;;;;;5013341;28;20512;-76
2022/05/11 09:10:52;;;;;;;4.75;1.85;;;19.20;90.10;;;;;;4993871;28;20050;-75
2022/05/11 09:13:18;;;;;;;13.05;2.80;;;19.20;89.30;;;;;;4969968;28;20041;-75
2022/05/11 09:15:53;;;;;;;4.28;1.60;;;19.20;89.10;;;;;;4999083;28;20041;-76
2022/05/11 09:18:31;;;;;;;6.57;2.30;;;19.40;87.30;;;;;;5027193;28;20034;-76
2022/05/11 09:21:10;;;;;;;7.88;2.28;;;19.60;88.50;;;;;;5007669;28;20041;-76
2022/05/11 09:23:39;;;;;;;7.63;2.30;;;19.60;87.40;;;;;;4999001;28;20490;-75
2022/05/11 09:26:11;;;;;;;6.28;1.80;;;19.80;87.00;;;;;;5007215;28;20488;-75
2022/05/11 09:28:40;;;;;;;11.43;3.03;;;19.90;86.00;;;;;;5012376;28;20031;-75
2022/05/11 09:31:23;;;;;;;4.78;2.50;;;20.10;86.40;;;;;;4992971;28;20140;-75
2022/05/11 09:33:59;;;;;;;7.70;1.88;;;20.20;86.70;;;;;;4996018;28;20042;-76
2022/05/11 09:37:02;;;;;;;7.85;1.95;;;20.20;85.60;;;;;;4977959;28;20407;-76
2022/05/11 09:39:29;;;;;;;8.60;2.33;;;20.30;82.50;;;;;;4981855;28;20068;-77
2022/05/11 09:42:11;;;;;;;7.15;2.30;;;20.40;83.90;;;;;;4986037;28;20049;-76
2022/05/11 09:44:45;;;;;;;5.20;1.60;;;20.30;81.10;;;;;;4990340;28;20045;-76
2022/05/11 09:47:29;;;;;;;7.35;2.20;;;20.40;82.10;;;;;;4982442;28;20044;-76
2022/05/11 09:50:13;;;;;;;5.50;2.15;;;20.50;82.00;;;;;;5014940;28;20048;-76
2022/05/11 09:52:39;;;;;;;10.95;2.22;;;20.60;80.60;;;;;;4998603;28;20033;-76
2022/05/11 09:55:28;;;;;;;4.15;1.42;;;20.50;79.30;;;;;;4982380;28;20461;-75
2022/05/11 09:58:00;;;;;;;8.98;1.92;;;20.50;76.30;;;;;;5014288;28;20045;-76
2022/05/11 10:00:41;;;;;;;10.32;2.17;;;20.50;77.30;;;;;;4998459;28;20037;-76
2022/05/11 10:03:20;;;;;;;5.38;1.75;;;20.60;76.10;;;;;;5014494;28;20037;-76
2022/05/11 10:05:51;;;;;;;10.50;2.15;;;20.70;76.10;;;;;;5014508;28;20053;-75
2022/05/11 10:08:36;;;;;;;6.95;1.73;;;20.80;76.60;;;;;;5030795;28;20059;-75
2022/05/11 10:11:18;;;;;;;3.60;1.40;;;20.60;75.60;;;;;;4998304;28;20048;-75
2022/05/11 10:22:47;;;;;;;9.38;2.13;;;21.20;74.00;;;;;;5000282;28;20094;-76
2022/05/11 10:25:16;;;;;;;6.80;2.35;;;21.20;73.40;;;;;;5014166;28;20079;-76
2022/05/11 10:28:02;;;;;;;9.45;2.65;;;21.20;73.80;;;;;;4974810;28;20100;-76
2022/05/11 10:30:36;;;;;;;8.10;2.13;;;21.10;74.30;;;;;;4978338;28;20038;-76
2022/05/11 10:33:21;;;;;;;7.80;1.52;;;21.30;74.70;;;;;;4982796;28;20502;-76
2022/05/11 10:35:59;;;;;;;7.00;1.42;;;21.50;73.60;;;;;;4984296;28;20073;-75
2022/05/11 10:38:38;;;;;;;6.70;1.80;;;21.70;71.90;;;;;;4991637;28;20042;-75
2022/05/11 10:41:46;;;;;;;10.75;1.60;;;21.60;70.40;;;;;;4977448;28;20034;-76
2022/05/11 10:44:23;;;;;;;4.82;1.42;;;21.70;69.90;;;;;;4976517;28;20041;-75
2022/05/11 10:47:10;;;;;;;3.60;1.20;;;21.50;69.70;;;;;;4992034;28;20100;-76
2022/05/11 10:50:00;;;;;;;4.30;1.80;;;21.50;69.60;;;;;;4985459;28;20585;-76
2022/05/11 10:52:51;;;;;;;6.88;1.80;;;21.60;69.20;;;;;;5010115;28;20104;-76
2022/05/11 10:55:40;;;;;;;4.45;1.65;;;21.50;68.30;;;;;;4991110;28;20545;-76
2022/05/11 10:58:09;;;;;;;3.50;1.50;;;21.50;68.30;;;;;;4969720;28;20042;-76
2022/05/11 11:00:51;;;;;;;11.05;2.42;;;21.60;68.60;;;;;;4975426;28;20510;-77
2022/05/11 11:03:39;;;;;;;5.88;1.90;;;21.80;69.70;;;;;;5000779;28;20037;-76
2022/05/11 11:09:07;;;;;;;5.28;1.30;;;22.20;70.20;;;;;;5013920;28;20302;-76
2022/05/11 11:11:41;;;;;;;12.18;2.10;;;22.30;70.10;;;;;;4996746;28;20043;-76
2022/05/11 11:14:10;;;;;;;8.27;2.08;;;22.50;68.00;;;;;;4996996;28;20065;-77
2022/05/11 11:16:39;;;;;;;6.57;2.05;;;22.40;66.90;;;;;;4991979;28;20125;-76
2022/05/11 11:19:07;;;;;;;5.78;1.48;;;22.20;67.70;;;;;;5004358;28;20049;-76
2022/05/11 11:21:33;;;;;;;6.18;2.17;;;22.20;67.70;;;;;;4993962;28;20041;-76
2022/05/11 11:24:25;;;;;;;9.68;2.97;;;22.10;67.50;;;;;;4979588;28;20496;-76
2022/05/11 11:26:54;;;;;;;4.60;1.77;;;22.20;67.50;;;;;;4996672;28;20094;-76
2022/05/11 11:29:59;;;;;;;7.65;1.90;;;22.20;67.90;;;;;;4979233;28;20566;-76
2022/05/11 11:32:25;;;;;;;6.72;1.73;;;22.60;68.60;;;;;;5000968;28;20033;-76
2022/05/11 11:35:11;;;;;;;5.88;1.80;;;22.50;68.30;;;;;;4990986;28;20072;-76
2022/05/11 11:37:40;;;;;;;10.63;2.20;;;22.60;68.00;;;;;;4985688;28;20117;-77
2022/05/11 11:40:15;;;;;;;6.22;1.58;;;22.60;66.00;;;;;;4997347;28;20045;-77
2022/05/11 11:42:45;;;;;;;5.03;1.85;;;22.70;65.70;;;;;;5012577;28;20045;-76
2022/05/11 11:45:26;;;;;;;23.98;6.00;;;22.70;67.30;;;;;;4996365;28;20440;-75
2022/05/11 11:48:17;;;;;;;9.05;2.08;;;22.60;65.50;;;;;;5021657;28;20036;-76
2022/05/11 11:50:46;;;;;;;9.55;2.22;;;22.80;66.50;;;;;;5008042;28;20042;-76
2022/05/11 11:53:22;;;;;;;7.75;2.22;;;22.90;67.90;;;;;;5008100;28;20529;-77
2022/05/11 11:55:48;;;;;;;5.65;1.80;;;23.10;67.30;;;;;;5015062;28;20446;-76
2022/05/11 11:58:28;;;;;;;4.75;1.52;;;23.00;66.80;;;;;;4996856;28;20033;-76
2022/05/11 12:01:15;;;;;;;5.07;2.28;;;23.10;66.60;;;;;;5013239;28;20127;-77
2022/05/11 12:03:59;;;;;;;4.68;1.73;;;23.00;66.20;;;;;;4986971;28;20045;-76
2022/05/11 12:15:04;;;;;;;7.25;1.77;;;23.00;66.80;;;;;;5012090;28;20037;-75
2022/05/11 12:17:35;;;;;;;4.63;2.03;;;23.00;65.80;;;;;;4984967;28;20454;-76
2022/05/11 12:20:17;;;;;;;4.15;1.50;;;23.10;65.50;;;;;;5010891;28;20042;-76
2022/05/11 12:22:50;;;;;;;12.30;2.22;;;23.20;66.10;;;;;;5012911;28;20083;-76
2022/05/11 12:25:29;;;;;;;6.47;1.40;;;23.20;65.20;;;;;;5012065;28;20033;-76
2022/05/11 12:27:58;;;;;;;10.50;1.90;;;23.30;66.20;;;;;;4982626;28;20101;-76
2022/05/11 12:30:32;;;;;;;9.15;1.50;;;23.40;65.50;;;;;;4992677;28;20042;-76
2022/05/11 12:33:04;;;;;;;6.45;1.55;;;23.30;65.40;;;;;;5005724;28;20569;-76
2022/05/11 12:35:33;;;;;;;9.63;2.05;;;23.20;65.90;;;;;;4995991;28;20042;-76
2022/05/11 12:38:08;;;;;;;6.03;1.50;;;23.10;66.00;;;;;;5011764;28;20498;-76
2022/05/11 12:40:40;;;;;;;5.28;1.98;;;23.10;67.50;;;;;;4995575;28;20041;-76
2022/05/11 12:43:31;;;;;;;7.05;1.50;;;22.90;64.80;;;;;;5011005;28;20052;-76
2022/05/11 12:45:59;;;;;;;6.97;1.60;;;22.90;65.40;;;;;;4995728;28;20041;-76
2022/05/11 12:48:35;;;;;;;5.82;1.80;;;23.00;65.10;;;;;;4995945;28;20041;-77
2022/05/11 12:51:04;;;;;;;7.05;1.80;;;23.10;64.60;;;;;;5012073;28;20093;-77
2022/05/11 12:53:54;;;;;;;3.20;1.40;;;23.40;66.50;;;;;;5015607;28;20045;-76
2022/05/11 12:56:35;;;;;;;6.35;1.75;;;23.80;64.00;;;;;;5004441;28;20141;-76
2022/05/11 12:59:05;;;;;;;18.80;2.03;;;23.90;64.10;;;;;;5009584;28;20045;-77
2022/05/11 13:01:33;;;;;;;5.30;1.73;;;23.90;64.10;;;;;;5001983;28;20111;-76
2022/05/11 13:04:01;;;;;;;6.63;2.28;;;23.80;63.50;;;;;;5015672;28;20037;-77
2022/05/11 13:06:39;;;;;;;5.40;1.60;;;23.50;63.70;;;;;;4998734;28;20042;-78
2022/05/11 13:09:24;;;;;;;5.75;1.50;;;23.60;64.10;;;;;;5003220;28;20057;-77
2022/05/11 13:11:51;;;;;;;5.88;1.92;;;23.60;65.00;;;;;;4994214;28;20038;-77
2022/05/11 13:14:31;;;;;;;4.82;1.83;;;23.70;65.00;;;;;;4988202;28;20040;-77
2022/05/11 13:17:02;;;;;;;5.78;2.25;;;23.90;64.80;;;;;;5009720;28;20040;-80
2022/05/11 13:19:29;;;;;;;3.85;1.30;;;23.80;63.70;;;;;;5008431;28;20037;-79
2022/05/11 13:22:02;;;;;;;9.40;2.10;;;23.80;64.00;;;;;;5015690;28;20116;-80
2022/05/11 13:24:43;;;;;;;5.68;1.65;;;23.80;63.30;;;;;;4999064;28;20044;-80
2022/05/11 13:27:32;;;;;;;8.20;1.80;;;23.70;62.90;;;;;;5015040;28;20033;-81
2022/05/11 13:30:29;;;;;;;5.38;1.58;;;23.80;63.10;;;;;;5015589;28;20095;-81
2022/05/11 13:32:58;;;;;;;7.18;2.08;;;23.90;62.30;;;;;;5032095;28;20042;-82
2022/05/11 13:35:29;;;;;;;6.97;2.25;;;23.80;61.40;;;;;;5015288;28;20033;-80
2022/05/11 13:37:54;;;;;;;5.40;2.10;;;23.50;62.10;;;;;;4998682;28;20041;-80
2022/05/11 13:40:40;;;;;;;7.88;1.80;;;23.70;62.50;;;;;;5015416;28;20100;-80
2022/05/11 13:43:20;;;;;;;7.40;1.80;;;23.90;61.80;;;;;;4993567;28;20046;-82
2022/05/11 13:46:08;;;;;;;8.15;2.22;;;23.80;61.70;;;;;;5012777;28;20049;-83
2022/05/11 13:48:43;;;;;;;5.30;1.92;;;23.80;61.60;;;;;;5011876;28;20049;-81